sensor_id;sensor_type;location;lat;lon;timestamp;P1;durP1;ratioP1;P2;durP2;ratioP2
13687;SDS011;6916;51.504;7.416;2023-04-06T00:09:48;8.37;;;5.97;;
13687;SDS011;6916;51.504;7.416;2023-04-06T00:19:50;9.40;;;6.20;;
13687;SDS011;6916;51.504;7.416;2023-04-06T00:29:52;12.67;;;6.37;;
13687;SDS011;6916;51.504;7.416;2023-04-06T00:39:55;10.80;;;5.83;;
13687;SDS011;6916;51.504;7.416;2023-04-06T00:49:57;7.63;;;5.63;;
13687;SDS011;6916;51.504;7.416;2023-04-06T00:59:59;8.40;;;6.23;;
13687;SDS011;6916;51.504;7.416;2023-04-06T01:10:02;11.93;;;6.27;;
13687;SDS011;6916;51.504;7.416;2023-04-06T01:20:07;9.60;;;6.17;;
13687;SDS011;6916;51.504;7.416;2023-04-06T01:30:10;9.10;;;6.80;;
13687;SDS011;6916;51.504;7.416;2023-04-06T01:40:18;6.90;;;5.90;;
13687;SDS011;6916;51.504;7.416;2023-04-06T01:50:24;7.10;;;5.90;;
13687;SDS011;6916;51.504;7.416;2023-04-06T02:00:26;8.67;;;6.20;;
13687;SDS011;6916;51.504;7.416;2023-04-06T02:10:29;7.53;;;6.33;;
13687;SDS011;6916;51.504;7.416;2023-04-06T02:20:35;8.40;;;5.60;;
13687;SDS011;6916;51.504;7.416;2023-04-06T02:30:37;8.53;;;5.93;;
13687;SDS011;6916;51.504;7.416;2023-04-06T02:40:40;8.33;;;6.00;;
13687;SDS011;6916;51.504;7.416;2023-04-06T02:51:08;8.10;;;5.70;;
13687;SDS011;6916;51.504;7.416;2023-04-06T03:01:12;7.50;;;5.63;;
13687;SDS011;6916;51.504;7.416;2023-04-06T03:11:16;8.07;;;5.87;;
13687;SDS011;6916;51.504;7.416;2023-04-06T03:21:19;7.70;;;5.70;;
13687;SDS011;6916;51.504;7.416;2023-04-06T03:31:25;9.93;;;5.93;;
13687;SDS011;6916;51.504;7.416;2023-04-06T03:41:34;7.67;;;5.40;;
13687;SDS011;6916;51.504;7.416;2023-04-06T03:52:04;7.50;;;5.83;;
13687;SDS011;6916;51.504;7.416;2023-04-06T04:02:07;7.20;;;5.77;;
13687;SDS011;6916;51.504;7.416;2023-04-06T04:12:09;7.33;;;5.00;;
13687;SDS011;6916;51.504;7.416;2023-04-06T04:22:12;7.17;;;5.50;;
13687;SDS011;6916;51.504;7.416;2023-04-06T04:32:16;7.47;;;5.80;;
13687;SDS011;6916;51.504;7.416;2023-04-06T04:42:19;8.20;;;5.00;;
13687;SDS011;6916;51.504;7.416;2023-04-06T04:52:26;12.30;;;5.73;;
13687;SDS011;6916;51.504;7.416;2023-04-06T05:02:35;8.70;;;5.83;;
13687;SDS011;6916;51.504;7.416;2023-04-06T05:12:57;7.27;;;5.10;;
13687;SDS011;6916;51.504;7.416;2023-04-06T05:23:01;6.33;;;4.33;;
13687;SDS011;6916;51.504;7.416;2023-04-06T05:33:05;4.77;;;4.20;;
13687;SDS011;6916;51.504;7.416;2023-04-06T05:43:24;5.63;;;3.67;;
13687;SDS011;6916;51.504;7.416;2023-04-06T05:53:30;6.47;;;4.00;;
13687;SDS011;6916;51.504;7.416;2023-04-06T06:03:34;5.73;;;4.00;;
13687;SDS011;6916;51.504;7.416;2023-04-06T06:13:37;5.50;;;3.77;;
13687;SDS011;6916;51.504;7.416;2023-04-06T06:23:41;6.10;;;3.93;;
13687;SDS011;6916;51.504;7.416;2023-04-06T06:33:47;5.07;;;3.53;;
13687;SDS011;6916;51.504;7.416;2023-04-06T06:43:53;4.47;;;3.70;;
13687;SDS011;6916;51.504;7.416;2023-04-06T06:53:56;5.93;;;3.50;;
13687;SDS011;6916;51.504;7.416;2023-04-06T07:03:58;6.07;;;3.53;;
13687;SDS011;6916;51.504;7.416;2023-04-06T07:14:02;5.30;;;3.70;;
13687;SDS011;6916;51.504;7.416;2023-04-06T07:24:04;7.00;;;3.87;;
13687;SDS011;6916;51.504;7.416;2023-04-06T07:34:06;5.47;;;4.10;;
13687;SDS011;6916;51.504;7.416;2023-04-06T07:44:09;6.70;;;4.50;;
13687;SDS011;6916;51.504;7.416;2023-04-06T07:54:13;6.33;;;3.80;;
13687;SDS011;6916;51.504;7.416;2023-04-06T08:04:15;5.40;;;4.07;;
13687;SDS011;6916;51.504;7.416;2023-04-06T08:14:17;6.70;;;4.20;;
13687;SDS011;6916;51.504;7.416;2023-04-06T08:24:20;8.17;;;4.90;;
13687;SDS011;6916;51.504;7.416;2023-04-06T08:34:22;8.60;;;4.40;;
13687;SDS011;6916;51.504;7.416;2023-04-06T08:44:24;6.13;;;4.73;;
13687;SDS011;6916;51.504;7.416;2023-04-06T08:54:27;7.53;;;5.43;;
13687;SDS011;6916;51.504;7.416;2023-04-06T09:04:29;9.03;;;6.23;;
13687;SDS011;6916;51.504;7.416;2023-04-06T09:14:35;7.27;;;5.60;;
13687;SDS011;6916;51.504;7.416;2023-04-06T09:24:51;9.90;;;7.30;;
13687;SDS011;6916;51.504;7.416;2023-04-06T09:34:54;10.80;;;7.27;;
13687;SDS011;6916;51.504;7.416;2023-04-06T09:44:56;8.67;;;6.70;;
13687;SDS011;6916;51.504;7.416;2023-04-06T09:55:02;10.10;;;7.10;;
13687;SDS011;6916;51.504;7.416;2023-04-06T10:05:09;10.77;;;7.53;;
13687;SDS011;6916;51.504;7.416;2023-04-06T10:15:18;11.52;;;7.85;;
13687;SDS011;6916;51.504;7.416;2023-04-06T10:25:27;13.47;;;9.40;;
13687;SDS011;6916;51.504;7.416;2023-04-06T10:35:36;15.05;;;9.20;;
13687;SDS011;6916;51.504;7.416;2023-04-06T10:45:40;15.63;;;10.23;;
13687;SDS011;6916;51.504;7.416;2023-04-06T10:55:45;14.53;;;10.13;;
13687;SDS011;6916;51.504;7.416;2023-04-06T11:05:48;16.80;;;9.97;;
13687;SDS011;6916;51.504;7.416;2023-04-06T11:15:51;14.00;;;9.90;;
13687;SDS011;6916;51.504;7.416;2023-04-06T11:25:53;11.95;;;9.25;;
13687;SDS011;6916;51.504;7.416;2023-04-06T11:35:59;15.27;;;9.93;;
13687;SDS011;6916;51.504;7.416;2023-04-06T11:46:03;12.32;;;10.13;;
13687;SDS011;6916;51.504;7.416;2023-04-06T11:56:06;16.92;;;11.73;;
13687;SDS011;6916;51.504;7.416;2023-04-06T12:06:08;14.18;;;11.32;;
13687;SDS011;6916;51.504;7.416;2023-04-06T12:16:10;15.48;;;12.00;;
13687;SDS011;6916;51.504;7.416;2023-04-06T12:26:13;14.30;;;10.68;;
13687;SDS011;6916;51.504;7.416;2023-04-06T12:36:15;16.17;;;10.93;;
13687;SDS011;6916;51.504;7.416;2023-04-06T12:46:21;45.63;;;31.67;;
13687;SDS011;6916;51.504;7.416;2023-04-06T12:56:24;14.40;;;10.60;;
13687;SDS011;6916;51.504;7.416;2023-04-06T13:06:28;14.43;;;10.43;;
13687;SDS011;6916;51.504;7.416;2023-04-06T13:16:31;15.05;;;10.77;;
13687;SDS011;6916;51.504;7.416;2023-04-06T13:26:37;12.02;;;9.52;;
13687;SDS011;6916;51.504;7.416;2023-04-06T13:36:39;11.82;;;9.35;;
13687;SDS011;6916;51.504;7.416;2023-04-06T13:46:43;12.63;;;9.55;;
13687;SDS011;6916;51.504;7.416;2023-04-06T13:56:45;12.18;;;8.90;;
13687;SDS011;6916;51.504;7.416;2023-04-06T14:06:49;9.13;;;7.68;;
13687;SDS011;6916;51.504;7.416;2023-04-06T14:16:54;7.03;;;5.13;;
13687;SDS011;6916;51.504;7.416;2023-04-06T14:27:03;7.03;;;4.55;;
13687;SDS011;6916;51.504;7.416;2023-04-06T14:37:05;7.95;;;6.25;;
13687;SDS011;6916;51.504;7.416;2023-04-06T14:47:08;9.38;;;6.05;;
13687;SDS011;6916;51.504;7.416;2023-04-06T14:57:11;9.17;;;6.73;;
13687;SDS011;6916;51.504;7.416;2023-04-06T15:07:13;9.32;;;7.20;;
13687;SDS011;6916;51.504;7.416;2023-04-06T15:17:16;9.03;;;6.17;;
13687;SDS011;6916;51.504;7.416;2023-04-06T15:27:18;10.70;;;7.80;;
13687;SDS011;6916;51.504;7.416;2023-04-06T15:37:21;10.47;;;7.57;;
13687;SDS011;6916;51.504;7.416;2023-04-06T15:47:23;10.00;;;7.25;;
13687;SDS011;6916;51.504;7.416;2023-04-06T15:57:26;10.67;;;7.13;;
13687;SDS011;6916;51.504;7.416;2023-04-06T16:07:29;8.48;;;6.10;;
13687;SDS011;6916;51.504;7.416;2023-04-06T16:17:33;5.65;;;4.78;;
13687;SDS011;6916;51.504;7.416;2023-04-06T16:27:37;6.50;;;4.07;;
13687;SDS011;6916;51.504;7.416;2023-04-06T16:48:08;6.83;;;4.47;;
13687;SDS011;6916;51.504;7.416;2023-04-06T16:58:14;5.80;;;4.65;;
13687;SDS011;6916;51.504;7.416;2023-04-06T17:08:22;6.70;;;5.67;;
13687;SDS011;6916;51.504;7.416;2023-04-06T17:18:51;7.65;;;6.10;;
13687;SDS011;6916;51.504;7.416;2023-04-06T17:28:54;8.20;;;6.77;;
13687;SDS011;6916;51.504;7.416;2023-04-06T17:38:56;11.97;;;8.40;;
13687;SDS011;6916;51.504;7.416;2023-04-06T17:49:02;8.77;;;7.05;;
13687;SDS011;6916;51.504;7.416;2023-04-06T17:59:35;9.57;;;7.10;;
13687;SDS011;6916;51.504;7.416;2023-04-06T18:09:37;8.53;;;7.43;;
13687;SDS011;6916;51.504;7.416;2023-04-06T18:19:40;11.57;;;7.23;;
13687;SDS011;6916;51.504;7.416;2023-04-06T18:29:42;8.10;;;6.30;;
13687;SDS011;6916;51.504;7.416;2023-04-06T18:39:48;5.87;;;5.23;;
13687;SDS011;6916;51.504;7.416;2023-04-06T18:49:50;6.17;;;4.80;;
13687;SDS011;6916;51.504;7.416;2023-04-06T18:59:52;5.73;;;5.07;;
13687;SDS011;6916;51.504;7.416;2023-04-06T19:09:56;9.87;;;5.17;;
13687;SDS011;6916;51.504;7.416;2023-04-06T19:19:58;8.13;;;5.53;;
13687;SDS011;6916;51.504;7.416;2023-04-06T19:30:03;6.87;;;6.17;;
13687;SDS011;6916;51.504;7.416;2023-04-06T19:40:06;9.07;;;6.00;;
13687;SDS011;6916;51.504;7.416;2023-04-06T19:50:11;8.10;;;6.23;;
13687;SDS011;6916;51.504;7.416;2023-04-06T20:00:14;7.13;;;6.27;;
13687;SDS011;6916;51.504;7.416;2023-04-06T20:10:18;6.53;;;5.27;;
13687;SDS011;6916;51.504;7.416;2023-04-06T20:20:20;6.23;;;5.43;;
13687;SDS011;6916;51.504;7.416;2023-04-06T20:30:22;6.37;;;5.40;;
13687;SDS011;6916;51.504;7.416;2023-04-06T20:40:24;6.73;;;4.97;;
13687;SDS011;6916;51.504;7.416;2023-04-06T20:50:26;5.37;;;4.83;;
13687;SDS011;6916;51.504;7.416;2023-04-06T21:00:28;6.20;;;5.20;;
13687;SDS011;6916;51.504;7.416;2023-04-06T21:10:30;5.70;;;4.87;;
13687;SDS011;6916;51.504;7.416;2023-04-06T21:20:33;4.67;;;4.10;;
13687;SDS011;6916;51.504;7.416;2023-04-06T21:30:36;4.53;;;4.07;;
13687;SDS011;6916;51.504;7.416;2023-04-06T21:40:38;4.90;;;3.93;;
13687;SDS011;6916;51.504;7.416;2023-04-06T21:50:40;5.17;;;4.67;;
13687;SDS011;6916;51.504;7.416;2023-04-06T22:00:43;4.77;;;4.23;;
13687;SDS011;6916;51.504;7.416;2023-04-06T22:10:45;4.17;;;3.67;;
13687;SDS011;6916;51.504;7.416;2023-04-06T22:20:47;3.20;;;3.00;;
13687;SDS011;6916;51.504;7.416;2023-04-06T22:30:49;3.70;;;3.23;;
13687;SDS011;6916;51.504;7.416;2023-04-06T22:40:51;3.80;;;3.37;;
13687;SDS011;6916;51.504;7.416;2023-04-06T22:50:53;3.20;;;2.90;;
13687;SDS011;6916;51.504;7.416;2023-04-06T23:00:56;4.07;;;2.90;;
13687;SDS011;6916;51.504;7.416;2023-04-06T23:10:58;3.70;;;3.20;;
13687;SDS011;6916;51.504;7.416;2023-04-06T23:21:01;4.17;;;3.30;;
13687;SDS011;6916;51.504;7.416;2023-04-06T23:31:03;4.27;;;3.07;;
13687;SDS011;6916;51.504;7.416;2023-04-06T23:41:05;3.97;;;3.47;;
13687;SDS011;6916;51.504;7.416;2023-04-06T23:51:07;3.83;;;3.43;;
